createdAt,value
2023-03-06T00:00:18.049Z,55.10
2023-03-06T00:01:18.214Z,55.24
2023-03-06T00:02:18.322Z,55.50
2023-03-06T00:03:18.614Z,55.32
2023-03-06T00:04:18.573Z,55.35
2023-03-06T00:05:18.724Z,55.50
2023-03-06T00:06:18.902Z,55.32
2023-03-06T00:07:19.024Z,55.72
2023-03-06T00:08:19.133Z,55.47
2023-03-06T00:09:19.231Z,55.28
2023-03-06T00:10:19.375Z,55.61
2023-03-06T00:11:19.491Z,55.58
2023-03-06T00:12:19.612Z,55.47
2023-03-06T00:13:19.713Z,55.43
2023-03-06T00:14:19.839Z,55.17
2023-03-06T00:15:19.997Z,55.28
2023-03-06T00:16:20.168Z,55.13
2023-03-06T00:17:20.277Z,55.28
2023-03-06T00:18:20.392Z,55.13
2023-03-06T00:19:20.531Z,55.43
2023-03-06T00:20:20.619Z,55.24
2023-03-06T00:21:20.766Z,55.43
2023-03-06T00:22:20.908Z,55.50
2023-03-06T00:23:21.098Z,55.43
2023-03-06T00:24:21.186Z,55.35
2023-03-06T00:25:21.330Z,55.54
2023-03-06T00:26:21.479Z,55.35
2023-03-06T00:27:21.617Z,55.32
2023-03-06T00:28:21.742Z,55.43
2023-03-06T00:29:21.826Z,55.47
2023-03-06T00:30:21.966Z,55.61
2023-03-06T00:31:22.119Z,55.69
2023-03-06T00:32:22.277Z,55.69
2023-03-06T00:33:22.369Z,55.54
2023-03-06T00:34:22.453Z,55.91
2023-03-06T00:35:22.633Z,55.72
2023-03-06T00:36:22.720Z,55.69
2023-03-06T00:37:22.866Z,55.72
2023-03-06T00:38:23.030Z,55.58
2023-03-06T00:39:23.130Z,55.91
2023-03-06T00:40:23.272Z,55.69
2023-03-06T00:41:23.431Z,56.02
2023-03-06T00:42:23.549Z,56.06
2023-03-06T00:43:23.641Z,56.10
2023-03-06T00:44:23.780Z,56.25
2023-03-06T00:45:23.966Z,56.33
2023-03-06T00:46:23.987Z,56.21
2023-03-06T00:47:24.148Z,56.25
2023-03-06T00:48:24.237Z,55.87
2023-03-06T00:49:24.399Z,56.14
2023-03-06T00:50:24.498Z,56.33
2023-03-06T00:51:24.681Z,56.02
2023-03-06T00:52:24.767Z,56.44
2023-03-06T00:53:24.865Z,56.44
2023-03-06T00:54:25.024Z,56.36
2023-03-06T00:55:25.162Z,56.33
2023-03-06T00:56:25.280Z,56.40
2023-03-06T00:57:25.347Z,56.33
2023-03-06T00:58:25.508Z,56.63
2023-03-06T00:59:25.585Z,56.33
2023-03-06T01:00:25.732Z,56.86
2023-03-06T01:01:25.872Z,56.59
2023-03-06T01:02:26.083Z,56.67
2023-03-06T01:03:26.191Z,56.94
2023-03-06T01:04:26.229Z,56.86
2023-03-06T01:05:26.397Z,56.98
2023-03-06T01:06:26.496Z,56.98
2023-03-06T01:07:26.638Z,57.14
2023-03-06T01:08:26.778Z,57.25
2023-03-06T01:09:26.879Z,57.25
2023-03-06T01:10:27.201Z,57.49
2023-03-06T01:11:27.117Z,57.45
2023-03-06T01:12:27.265Z,57.33
2023-03-06T01:13:27.415Z,57.57
2023-03-06T01:14:27.554Z,57.49
2023-03-06T01:15:27.703Z,57.61
2023-03-06T01:16:27.906Z,57.85
2023-03-06T01:17:27.992Z,58.01
2023-03-06T01:18:28.112Z,58.01
2023-03-06T01:19:28.213Z,57.97
2023-03-06T01:20:28.343Z,58.17
2023-03-06T01:21:28.472Z,58.09
2023-03-06T01:22:28.632Z,58.29
2023-03-06T01:23:28.722Z,58.46
2023-03-06T01:24:28.823Z,58.01
2023-03-06T01:25:28.920Z,58.05
2023-03-06T01:26:29.103Z,58.25
2023-03-06T01:27:29.192Z,58.38
2023-03-06T01:28:29.299Z,58.42
2023-03-06T01:29:29.437Z,58.50
2023-03-06T01:30:29.508Z,58.38
2023-03-06T01:31:29.666Z,58.33
2023-03-06T01:32:29.837Z,58.33
2023-03-06T01:33:29.953Z,58.54
2023-03-06T01:34:30.043Z,58.33
2023-03-06T01:35:30.253Z,58.54
2023-03-06T01:36:30.334Z,58.62
2023-03-06T01:37:30.496Z,58.50
2023-03-06T01:38:30.637Z,58.46
2023-03-06T01:39:30.756Z,58.54
2023-03-06T01:40:30.857Z,58.58
2023-03-06T01:41:31.016Z,58.50
2023-03-06T01:42:32.184Z,58.66
2023-03-06T01:43:31.260Z,58.70
2023-03-06T01:44:31.409Z,58.91
2023-03-06T01:45:31.544Z,58.54
2023-03-06T01:46:31.616Z,58.66
2023-03-06T01:47:31.708Z,58.66
2023-03-06T01:48:31.850Z,58.54
2023-03-06T01:49:32.001Z,58.58
2023-03-06T01:50:32.093Z,58.50
2023-03-06T01:51:32.272Z,58.79
2023-03-06T01:52:32.361Z,59.04
2023-03-06T01:53:32.506Z,58.95
2023-03-06T01:54:32.716Z,58.95
2023-03-06T01:55:32.778Z,59.08
2023-03-06T01:56:32.909Z,59.08
2023-03-06T01:57:33.041Z,58.95
2023-03-06T01:58:33.134Z,59.29
2023-03-06T01:59:33.277Z,58.91
2023-03-06T02:00:33.433Z,58.91
2023-03-06T02:01:33.535Z,59.12
2023-03-06T02:02:33.677Z,59.20
2023-03-06T02:03:33.767Z,58.95
2023-03-06T02:04:33.963Z,58.91
2023-03-06T02:05:34.046Z,59.25
2023-03-06T02:06:34.182Z,59.41
2023-03-06T02:07:34.318Z,59.37
2023-03-06T02:08:34.461Z,59.25
2023-03-06T02:09:34.635Z,59.16
2023-03-06T02:10:34.742Z,59.29
2023-03-06T02:11:34.894Z,59.29
2023-03-06T02:12:34.975Z,59.33
2023-03-06T02:13:35.065Z,59.50
2023-03-06T02:14:35.220Z,59.41
2023-03-06T02:15:35.311Z,59.54
2023-03-06T02:16:35.483Z,59.80
2023-03-06T02:17:35.634Z,59.76
2023-03-06T02:18:35.719Z,59.80
2023-03-06T02:19:35.870Z,59.76
2023-03-06T02:20:35.964Z,59.63
2023-03-06T02:21:36.131Z,60.06
2023-03-06T02:22:36.251Z,60.06
2023-03-06T02:23:36.330Z,60.01
2023-03-06T02:24:36.478Z,60.36
2023-03-06T02:25:36.577Z,60.19
2023-03-06T02:26:36.659Z,60.53
2023-03-06T02:27:36.840Z,60.58
2023-03-06T02:28:36.926Z,60.67
2023-03-06T02:29:37.077Z,60.76
2023-03-06T02:30:37.255Z,60.53
2023-03-06T02:31:37.278Z,60.89
2023-03-06T02:32:37.484Z,60.98
2023-03-06T02:33:37.517Z,60.98
2023-03-06T02:34:37.655Z,61.11
2023-03-06T02:35:37.832Z,61.20
2023-03-06T02:36:37.897Z,61.02
2023-03-06T02:37:38.046Z,61.20
2023-03-06T02:38:38.178Z,61.70
2023-03-06T02:39:38.345Z,61.56
2023-03-06T02:40:38.494Z,61.70
2023-03-06T02:41:38.597Z,61.34
2023-03-06T02:42:38.724Z,61.16
2023-03-06T02:43:38.871Z,60.84
2023-03-06T02:44:38.944Z,60.40
2023-03-06T02:45:39.109Z,60.14
2023-03-06T02:46:39.211Z,60.19
2023-03-06T02:47:39.300Z,60.01
2023-03-06T02:48:39.462Z,59.67
2023-03-06T02:49:39.561Z,59.67
2023-03-06T02:50:39.716Z,59.33
2023-03-06T02:51:39.848Z,59.37
2023-03-06T02:52:39.957Z,59.12
2023-03-06T02:53:40.066Z,58.91
2023-03-06T02:54:40.183Z,58.83
2023-03-06T02:55:40.325Z,58.62
2023-03-06T02:56:40.459Z,58.38
2023-03-06T02:57:40.631Z,58.21
2023-03-06T02:58:40.705Z,57.89
2023-03-06T02:59:40.793Z,57.93
2023-03-06T03:00:40.954Z,57.77
2023-03-06T03:01:41.080Z,57.37
2023-03-06T03:02:41.158Z,57.45
2023-03-06T03:03:41.252Z,57.37
2023-03-06T03:04:41.447Z,57.10
2023-03-06T03:05:41.460Z,57.25
2023-03-06T03:06:41.633Z,57.02
2023-03-06T03:07:41.739Z,56.86
2023-03-06T03:08:41.891Z,56.79
2023-03-06T03:09:42.038Z,56.67
2023-03-06T03:10:42.198Z,56.94
2023-03-06T03:11:42.278Z,56.63
2023-03-06T03:12:42.427Z,56.40
2023-03-06T03:13:42.582Z,56.52
2023-03-06T03:14:42.699Z,56.59
2023-03-06T03:15:42.826Z,56.36
2023-03-06T03:16:42.931Z,56.40
2023-03-06T03:17:43.014Z,56.17
2023-03-06T03:18:43.166Z,56.21
2023-03-06T03:19:43.336Z,56.44
2023-03-06T03:20:43.429Z,56.21
2023-03-06T03:21:43.538Z,56.48
2023-03-06T03:22:43.684Z,56.48
2023-03-06T03:23:43.767Z,56.52
2023-03-06T03:24:43.935Z,56.67
2023-03-06T03:25:44.042Z,56.56
2023-03-06T03:26:44.150Z,56.36
2023-03-06T03:27:44.262Z,56.83
2023-03-06T03:28:44.368Z,56.63
2023-03-06T03:29:44.465Z,56.63
2023-03-06T03:30:44.625Z,56.40
2023-03-06T03:31:44.735Z,56.75
2023-03-06T03:32:44.837Z,56.75
2023-03-06T03:33:44.943Z,56.63
2023-03-06T03:34:45.054Z,57.06
2023-03-06T03:35:45.257Z,57.41
2023-03-06T03:36:45.284Z,57.49
2023-03-06T03:37:45.476Z,57.45
2023-03-06T03:38:45.534Z,57.69
2023-03-06T03:39:45.640Z,57.85
2023-03-06T03:40:45.784Z,58.05
2023-03-06T03:41:45.941Z,58.13
2023-03-06T03:42:46.017Z,58.17
2023-03-06T03:43:46.152Z,58.50
2023-03-06T03:44:46.283Z,58.62
2023-03-06T03:45:46.444Z,58.79
2023-03-06T03:46:46.732Z,58.74
2023-03-06T03:47:46.683Z,59.04
2023-03-06T03:48:46.822Z,58.95
2023-03-06T03:49:47.011Z,59.08
2023-03-06T03:50:47.108Z,59.08
2023-03-06T03:51:47.292Z,59.12
2023-03-06T03:52:47.399Z,59.33
2023-03-06T03:53:47.507Z,58.99
2023-03-06T03:54:47.606Z,59.33
2023-03-06T03:55:47.700Z,59.33
2023-03-06T03:56:47.849Z,58.91
2023-03-06T03:57:48.018Z,59.08
2023-03-06T03:58:48.096Z,58.66
2023-03-06T03:59:48.257Z,58.54
2023-03-06T04:00:48.399Z,58.46
2023-03-06T04:01:48.539Z,57.97
2023-03-06T04:02:48.615Z,58.01
2023-03-06T04:03:48.765Z,57.89
2023-03-06T04:04:48.924Z,57.85
2023-03-06T04:05:49.013Z,57.69
2023-03-06T04:06:49.103Z,57.61
2023-03-06T04:07:49.252Z,57.45
2023-03-06T04:08:49.482Z,57.33
2023-03-06T04:09:49.467Z,57.14
2023-03-06T04:10:49.616Z,57.21
2023-03-06T04:11:49.718Z,57.06
2023-03-06T04:12:49.857Z,56.83
2023-03-06T04:13:50.031Z,56.94
2023-03-06T04:14:50.131Z,56.67
2023-03-06T04:15:50.313Z,56.83
2023-03-06T04:16:50.421Z,56.71
2023-03-06T04:17:50.542Z,56.75
2023-03-06T04:18:50.680Z,56.75
2023-03-06T04:19:50.769Z,56.63
2023-03-06T04:20:50.938Z,56.59
2023-03-06T04:21:51.081Z,56.63
2023-03-06T04:22:51.206Z,56.83
2023-03-06T04:23:51.381Z,56.71
2023-03-06T04:24:51.487Z,56.83
2023-03-06T04:25:51.598Z,56.79
2023-03-06T04:26:51.696Z,56.63
2023-03-06T04:27:51.788Z,56.52
2023-03-06T04:28:51.955Z,56.59
2023-03-06T04:29:52.046Z,56.29
2023-03-06T04:30:52.199Z,56.63
2023-03-06T04:31:52.281Z,56.52
2023-03-06T04:32:52.425Z,56.44
2023-03-06T04:33:52.605Z,56.25
2023-03-06T04:34:52.695Z,56.33
2023-03-06T04:35:52.855Z,56.02
2023-03-06T04:36:52.931Z,56.14
2023-03-06T04:37:53.066Z,56.17
2023-03-06T04:38:53.204Z,55.99
2023-03-06T04:39:53.330Z,56.52
2023-03-06T04:40:53.414Z,56.44
2023-03-06T04:41:53.587Z,56.44
2023-03-06T04:42:53.697Z,56.21
2023-03-06T04:43:53.836Z,56.25
2023-03-06T04:44:54.010Z,56.17
2023-03-06T04:45:54.169Z,56.21
2023-03-06T04:46:54.253Z,56.36
2023-03-06T04:47:54.343Z,56.14
2023-03-06T04:48:54.487Z,56.14
2023-03-06T04:49:54.664Z,56.36
2023-03-06T04:50:54.791Z,56.33
2023-03-06T04:51:54.872Z,56.36
2023-03-06T04:52:55.025Z,56.21
2023-03-06T04:53:55.164Z,56.40
2023-03-06T04:54:55.301Z,56.25
2023-03-06T04:55:55.452Z,56.29
2023-03-06T04:56:55.559Z,56.67
2023-03-06T04:57:55.760Z,56.63
2023-03-06T04:58:55.798Z,56.75
2023-03-06T04:59:55.940Z,56.86
2023-03-06T05:00:56.126Z,56.67
2023-03-06T05:01:56.165Z,56.86
2023-03-06T05:02:56.280Z,56.90
2023-03-06T05:03:56.416Z,57.14
2023-03-06T05:04:56.506Z,57.21
2023-03-06T05:05:56.673Z,57.25
2023-03-06T05:06:56.806Z,57.33
2023-03-06T05:07:56.966Z,57.29
2023-03-06T05:08:57.046Z,57.41
2023-03-06T05:09:57.151Z,57.89
2023-03-06T05:10:57.319Z,57.57
2023-03-06T05:11:57.411Z,57.81
2023-03-06T05:12:57.591Z,57.77
2023-03-06T05:13:57.634Z,57.97
2023-03-06T05:14:57.780Z,58.21
2023-03-06T05:15:57.960Z,58.46
2023-03-06T05:16:58.063Z,58.83
2023-03-06T05:17:58.159Z,58.83
2023-03-06T05:18:58.288Z,59.04
2023-03-06T05:19:58.356Z,59.46
2023-03-06T05:20:58.526Z,59.58
2023-03-06T05:21:58.634Z,59.63
2023-03-06T05:22:58.766Z,59.93
2023-03-06T05:23:58.934Z,60.40
2023-03-06T05:24:59.027Z,60.36
2023-03-06T05:25:59.193Z,60.80
2023-03-06T05:26:59.282Z,60.62
2023-03-06T05:27:59.456Z,61.02
2023-03-06T05:28:59.553Z,60.71
2023-03-06T05:29:59.656Z,61.02
2023-03-06T05:31:01.600Z,61.16
2023-03-06T05:32:00.126Z,61.88
2023-03-06T05:33:00.110Z,61.93
2023-03-06T05:34:00.201Z,61.79
2023-03-06T05:35:00.350Z,62.11
2023-03-06T05:36:00.437Z,62.62
2023-03-06T05:37:00.634Z,62.49
2023-03-06T05:38:00.735Z,62.72
2023-03-06T05:39:00.824Z,62.77
2023-03-06T05:40:00.934Z,63.10
2023-03-06T05:41:01.034Z,63.15
2023-03-06T05:42:01.208Z,63.24
2023-03-06T05:43:01.293Z,63.29
2023-03-06T05:44:01.435Z,63.10
2023-03-06T05:45:01.629Z,62.91
2023-03-06T05:46:01.754Z,63.24
2023-03-06T05:47:01.890Z,63.00
2023-03-06T05:48:01.990Z,63.53
2023-03-06T05:49:02.092Z,63.58
2023-03-06T05:50:02.175Z,63.77
2023-03-06T05:51:02.313Z,63.34
2023-03-06T05:52:02.457Z,63.05
2023-03-06T05:53:02.624Z,63.63
2023-03-06T05:54:02.705Z,63.05
2023-03-06T05:55:02.841Z,63.19
2023-03-06T05:56:02.999Z,62.96
2023-03-06T05:57:03.144Z,62.81
2023-03-06T05:58:03.298Z,63.15
2023-03-06T05:59:03.390Z,63.19
2023-03-06T06:00:03.528Z,62.49
2023-03-06T06:01:03.698Z,62.72
2023-03-06T06:02:03.823Z,62.77
2023-03-06T06:03:03.936Z,62.25
2023-03-06T06:04:04.089Z,62.21
2023-03-06T06:05:04.216Z,61.79
2023-03-06T06:06:04.319Z,61.79
2023-03-06T06:07:04.405Z,61.65
2023-03-06T06:08:04.566Z,62.11
2023-03-06T06:09:04.748Z,62.11
2023-03-06T06:10:04.830Z,61.88
2023-03-06T06:11:04.940Z,61.65
2023-03-06T06:12:05.053Z,61.88
2023-03-06T06:13:05.161Z,61.84
2023-03-06T06:14:05.311Z,61.61
2023-03-06T06:15:05.451Z,61.25
2023-03-06T06:16:05.624Z,61.47
2023-03-06T06:17:05.708Z,61.34
2023-03-06T06:18:05.842Z,61.16
2023-03-06T06:19:05.983Z,61.43
2023-03-06T06:20:06.108Z,61.43
2023-03-06T06:21:06.212Z,61.11
2023-03-06T06:22:06.303Z,60.84
2023-03-06T06:23:06.453Z,61.11
2023-03-06T06:24:06.546Z,60.89
2023-03-06T06:25:06.738Z,61.02
2023-03-06T06:26:06.858Z,60.45
2023-03-06T06:27:06.968Z,60.32
2023-03-06T06:28:07.110Z,60.40
2023-03-06T06:29:07.268Z,60.80
2023-03-06T07:27:25.056Z,47.08
2023-03-06T07:28:25.152Z,44.52
2023-03-06T07:29:25.284Z,39.92
2023-03-06T07:30:25.478Z,37.32
2023-03-06T07:31:25.621Z,34.51
2023-03-06T07:32:25.805Z,32.60
2023-03-06T07:33:25.854Z,30.64
2023-03-06T07:34:25.984Z,28.74
2023-03-06T07:35:26.169Z,26.13
2023-03-06T07:36:26.263Z,24.32
2023-03-06T07:37:26.347Z,22.48
2023-03-06T07:38:26.505Z,21.59
2023-03-06T07:39:26.645Z,21.03
2023-03-06T07:40:26.827Z,20.69
2023-03-06T07:41:26.855Z,19.85
2023-03-06T07:42:26.950Z,19.62
2023-03-06T07:43:27.057Z,18.79
2023-03-06T07:44:27.187Z,18.72
2023-03-06T07:45:27.297Z,18.84
2023-03-06T07:46:27.480Z,18.72
2023-03-06T07:47:27.608Z,18.43
2023-03-06T07:48:27.701Z,18.20
2023-03-06T07:49:27.786Z,17.98
2023-03-06T07:50:27.940Z,18.33
2023-03-06T07:51:28.055Z,18.44
2023-03-06T07:52:28.147Z,18.57
2023-03-06T07:53:28.268Z,18.74
2023-03-06T07:54:29.416Z,18.89
2023-03-06T07:55:28.494Z,19.01
2023-03-06T07:56:28.608Z,18.94
2023-03-06T07:57:28.761Z,19.30
2023-03-06T07:58:28.860Z,19.59
2023-03-06T07:59:29.027Z,20.15
2023-03-06T08:00:29.124Z,20.53
2023-03-06T08:01:29.275Z,20.88
2023-03-06T08:02:29.401Z,21.11
2023-03-06T08:03:29.568Z,21.26
2023-03-06T08:04:30.261Z,21.70
2023-03-06T08:05:29.815Z,21.39
2023-03-06T08:06:29.908Z,21.50
2023-03-06T08:07:30.102Z,21.84
2023-03-06T08:08:30.203Z,22.07
2023-03-06T08:09:30.356Z,22.24
2023-03-06T08:10:30.523Z,22.38
2023-03-06T08:11:30.623Z,22.55
2023-03-06T08:12:30.755Z,23.20
2023-03-06T08:13:30.879Z,23.12
2023-03-06T08:14:31.046Z,23.28
2023-03-06T08:15:31.228Z,23.57
2023-03-06T08:16:31.305Z,24.52
2023-03-06T08:17:31.374Z,24.87
2023-03-06T08:18:31.469Z,25.34
2023-03-06T08:19:31.774Z,25.64
2023-03-06T08:20:31.769Z,26.46
2023-03-06T08:21:31.865Z,26.85
2023-03-06T08:22:32.004Z,27.45
2023-03-06T08:23:32.150Z,27.47
2023-03-06T08:24:32.305Z,28.20
2023-03-06T08:25:32.403Z,28.92
2023-03-06T08:26:32.559Z,29.37
2023-03-06T08:27:32.811Z,30.00
2023-03-06T08:28:32.813Z,30.26
2023-03-06T08:29:32.951Z,30.37
2023-03-06T08:30:33.099Z,29.10
2023-03-06T08:31:33.333Z,28.94
2023-03-06T08:32:33.648Z,29.16
2023-03-06T08:33:33.459Z,30.46
2023-03-06T08:34:33.595Z,32.32
2023-03-06T08:35:33.785Z,34.60
2023-03-06T08:36:33.899Z,34.68
2023-03-06T08:37:34.068Z,34.86
2023-03-06T08:38:34.116Z,35.06
2023-03-06T08:39:34.247Z,36.19
2023-03-06T08:40:34.387Z,36.35
2023-03-06T08:41:34.537Z,37.86
2023-03-06T08:42:34.680Z,39.21
2023-03-06T08:43:34.859Z,40.94
2023-03-06T08:44:34.949Z,42.44
2023-03-06T08:45:35.103Z,44.81
2023-03-06T08:46:38.976Z,44.85
2023-03-06T08:47:35.390Z,46.19
2023-03-06T08:48:35.495Z,47.70
2023-03-06T08:49:35.573Z,48.99
2023-03-06T08:50:35.713Z,48.58
2023-03-06T08:51:35.812Z,47.83
2023-03-06T08:52:35.959Z,49.63
2023-03-06T08:53:43.128Z,48.96
2023-03-06T08:54:37.220Z,47.81
2023-03-06T08:55:36.359Z,47.51
2023-03-06T08:56:36.504Z,46.66
2023-03-06T08:57:36.694Z,47.62
2023-03-06T08:58:36.781Z,49.07
2023-03-06T08:59:36.883Z,49.83
2023-03-06T09:00:37.086Z,49.33
2023-03-06T09:01:37.239Z,50.01
2023-03-06T09:02:37.351Z,51.40
2023-03-06T09:03:37.512Z,53.99
2023-03-06T09:04:37.619Z,55.17
2023-03-06T09:05:37.705Z,55.76
2023-03-06T09:06:37.849Z,55.65
2023-03-06T09:07:38.001Z,57.10
2023-03-06T09:08:38.156Z,58.21
2023-03-06T09:09:38.250Z,59.16
2023-03-06T09:10:38.443Z,59.20
2023-03-06T09:11:38.505Z,60.58
2023-03-06T09:12:49.881Z,60.84
2023-03-06T09:13:39.758Z,59.20
2023-03-06T09:14:38.835Z,61.52
2023-03-06T09:15:38.984Z,62.67
2023-03-06T09:16:39.103Z,64.26
2023-03-06T09:17:39.293Z,67.00
2023-03-06T09:18:39.345Z,67.82
2023-03-06T09:19:39.524Z,67.87
2023-03-06T09:20:39.622Z,67.87
2023-03-06T09:21:39.766Z,68.49
2023-03-06T09:22:39.907Z,68.32
2023-03-06T09:23:40.054Z,66.95
2023-03-06T09:24:40.248Z,68.65
2023-03-06T09:25:40.326Z,69.17
2023-03-06T09:26:46.241Z,69.75
2023-03-06T09:27:41.601Z,69.75
2023-03-06T09:28:40.754Z,72.47
2023-03-06T09:29:40.863Z,74.14
2023-03-06T09:30:41.039Z,77.45
2023-03-06T09:31:41.100Z,75.83
2023-03-06T09:32:41.334Z,75.49
2023-03-06T09:33:41.379Z,76.11
2023-03-06T09:34:41.495Z,77.09
2023-03-06T09:35:41.611Z,77.74
2023-03-06T09:36:56.035Z,76.11
2023-03-06T09:37:42.864Z,76.04
2023-03-06T09:38:41.994Z,72.79
2023-03-06T09:39:42.164Z,74.28
2023-03-06T09:40:42.257Z,76.74
2023-03-06T09:41:42.381Z,79.21
2023-03-06T09:42:42.472Z,81.94
2023-03-06T09:43:42.616Z,83.33
2023-03-06T09:44:42.749Z,87.43
2023-03-06T09:45:42.961Z,91.56
2023-03-06T09:46:43.042Z,95.21
2023-03-06T09:47:43.178Z,96.07
2023-03-06T09:48:43.329Z,96.51
2023-03-06T09:49:43.418Z,100.17
2023-03-06T09:50:43.599Z,106.09
2023-03-06T09:51:43.717Z,106.49
2023-03-06T09:52:43.818Z,106.56
2023-03-06T09:53:43.976Z,108.86
2023-03-06T09:54:44.073Z,107.94
2023-03-06T09:55:44.229Z,108.01
2023-03-06T09:56:44.366Z,112.22
2023-03-06T09:57:45.133Z,110.44
2023-03-06T09:58:44.561Z,109.71
2023-03-06T09:59:44.659Z,106.90
2023-03-06T10:00:44.813Z,108.93
2023-03-06T10:01:44.953Z,104.56
2023-03-06T10:02:45.150Z,102.38
2023-03-06T10:03:45.184Z,102.31
2023-03-06T10:04:45.345Z,106.70
2023-03-06T10:05:45.400Z,107.25
2023-03-06T10:06:45.511Z,102.44
2023-03-06T10:07:45.616Z,104.23
2023-03-06T10:08:45.730Z,111.62
2023-03-06T10:09:45.857Z,115.25
2023-03-06T10:10:45.970Z,116.69
2023-03-06T10:11:46.091Z,122.16
2023-03-06T10:12:46.181Z,125.38
2023-03-06T10:13:46.343Z,133.71
2023-03-06T10:14:49.009Z,140.82
2023-03-06T10:15:46.586Z,147.29
2023-03-06T10:16:46.679Z,148.60
2023-03-06T10:17:46.775Z,154.09
2023-03-06T10:18:46.894Z,157.73
2023-03-06T10:19:46.989Z,160.46
2023-03-06T10:20:47.161Z,161.39
2023-03-06T10:21:47.313Z,152.54
2023-03-06T10:23:00.092Z,148.99
2023-03-06T10:23:48.521Z,150.74
2023-03-06T10:24:47.647Z,150.47
2023-03-06T10:25:47.782Z,147.55
2023-03-06T10:26:47.951Z,140.47
2023-03-06T10:27:48.024Z,143.86
2023-03-06T10:28:48.116Z,150.61
2023-03-06T10:30:01.528Z,153.80
2023-03-06T10:30:49.436Z,156.84
2023-03-06T10:31:49.687Z,153.24
2023-03-06T10:32:49.587Z,145.87
2023-03-06T10:33:48.829Z,147.55
2023-03-06T10:34:48.887Z,150.20
2023-03-06T10:35:49.116Z,153.10
2023-03-06T10:36:49.188Z,154.94
2023-03-06T10:37:49.364Z,155.52
2023-03-06T10:38:49.503Z,159.08
2023-03-06T10:39:49.578Z,158.93
2023-03-06T10:40:49.739Z,157.28
2023-03-06T10:41:49.844Z,165.06
2023-03-06T10:43:01.583Z,164.57
2023-03-06T10:43:51.067Z,165.39
2023-03-06T10:44:50.166Z,165.71
2023-03-06T10:45:50.314Z,165.88
2023-03-06T10:46:50.435Z,167.04
2023-03-06T10:47:50.516Z,166.54
2023-03-06T10:48:50.615Z,153.52
2023-03-06T10:49:50.725Z,155.09
2023-03-06T10:50:50.866Z,160.30
2023-03-06T10:51:50.966Z,159.99
2023-03-06T10:52:51.073Z,162.33
2023-03-06T10:53:51.183Z,162.80
2023-03-06T10:54:51.323Z,164.09
2023-03-06T10:55:51.455Z,163.60
2023-03-06T10:56:51.557Z,163.60
2023-03-06T10:57:51.651Z,168.22
2023-03-06T10:58:51.760Z,161.70
2023-03-06T10:59:51.881Z,156.25
2023-03-06T11:00:51.998Z,153.52
2023-03-06T11:01:52.137Z,153.10
2023-03-06T11:02:52.201Z,157.88
2023-03-06T11:03:52.299Z,160.61
2023-03-06T11:04:52.590Z,162.80
2023-03-06T11:05:52.541Z,160.92
2023-03-06T11:06:52.638Z,158.02
2023-03-06T11:07:52.759Z,165.39
2023-03-06T11:08:52.859Z,168.90
2023-03-06T11:09:53.004Z,169.42
2023-03-06T11:10:53.111Z,173.65
2023-03-06T11:11:53.189Z,170.45
2023-03-06T11:12:53.338Z,160.76
2023-03-06T11:13:53.496Z,153.80
2023-03-06T11:14:53.627Z,153.94
2023-03-06T11:15:53.779Z,153.24
2023-03-06T11:16:53.854Z,153.80
2023-03-06T11:17:53.956Z,155.67
2023-03-06T11:18:54.066Z,159.08
2023-03-06T11:19:54.154Z,151.84
2023-03-06T11:20:54.468Z,148.73
2023-03-06T11:21:54.406Z,152.12
2023-03-06T11:22:54.572Z,148.73
2023-03-06T11:23:54.705Z,143.73
2023-03-06T11:24:54.834Z,139.76
2023-03-06T11:25:54.944Z,141.78
2023-03-06T11:26:55.048Z,148.20
2023-03-06T11:27:55.204Z,151.57
2023-03-06T11:28:55.381Z,156.10
2023-03-06T11:29:55.459Z,152.96
2023-03-06T11:30:55.618Z,150.20
2023-03-06T11:31:55.699Z,147.81
2023-03-06T11:32:55.804Z,149.40
2023-03-06T11:33:55.964Z,155.23
2023-03-06T11:34:56.088Z,158.93
2023-03-06T11:35:56.145Z,166.71
2023-03-06T11:36:56.255Z,174.74
2023-03-06T11:37:56.356Z,175.84
2023-03-06T11:38:56.515Z,181.78
2023-03-06T11:39:56.625Z,184.60
2023-03-06T11:40:56.755Z,193.85
2023-03-06T11:41:56.862Z,208.24
2023-03-06T11:42:56.967Z,226.97
2023-03-06T11:43:57.084Z,245.11
2023-03-06T11:44:57.190Z,237.82
2023-03-06T11:45:57.340Z,229.35
2023-03-06T11:46:57.479Z,227.91
2023-03-06T11:47:57.562Z,223.72
2023-03-06T11:48:57.692Z,218.50
2023-03-06T11:49:57.792Z,216.34
2023-03-06T11:50:57.891Z,209.57
2023-03-06T11:51:58.003Z,209.30
2023-03-06T11:52:58.116Z,212.97
2023-03-06T11:53:58.242Z,209.30
2023-03-06T11:54:58.331Z,199.87
2023-03-06T11:55:58.431Z,186.15
2023-03-06T11:56:58.603Z,181.58
2023-03-06T11:57:58.703Z,172.04
2023-03-06T11:58:58.844Z,169.59
2023-03-06T11:59:58.931Z,179.05
2023-03-06T12:00:59.036Z,174.74
2023-03-06T12:01:59.210Z,179.24
2023-03-06T12:02:59.263Z,181.78
2023-03-06T12:03:59.400Z,174.01
2023-03-06T12:04:59.510Z,180.80
2023-03-06T12:05:59.650Z,188.29
2023-03-06T12:06:59.808Z,194.88
2023-03-06T12:07:59.889Z,200.24
2023-03-06T12:09:00.053Z,204.86
2023-03-06T12:10:00.154Z,202.09
2023-03-06T12:11:00.253Z,204.22
2023-03-06T12:12:00.338Z,208.77
2023-03-06T12:13:00.572Z,215.07
2023-03-06T12:14:02.370Z,215.35
2023-03-06T12:15:00.846Z,219.97
2023-03-06T12:16:00.890Z,221.30
2023-03-06T12:17:00.967Z,235.60
2023-03-06T12:18:01.136Z,243.11
2023-03-06T12:19:01.222Z,243.29
2023-03-06T12:20:01.396Z,253.44
2023-03-06T12:21:01.497Z,252.46
2023-03-06T12:22:01.606Z,254.23
2023-03-06T12:23:14.536Z,249.01
2023-03-06T12:24:02.846Z,257.01
2023-03-06T12:25:02.406Z,261.52
2023-03-06T12:26:02.096Z,260.48
2023-03-06T12:27:02.200Z,259.25
2023-03-06T12:28:02.302Z,267.93
2023-03-06T12:29:02.410Z,277.91
2023-03-06T12:30:02.496Z,283.68
2023-03-06T12:31:02.674Z,284.17
2023-03-06T12:32:02.871Z,287.15
2023-03-06T12:33:02.914Z,279.33
2023-03-06T12:34:03.013Z,270.58
2023-03-06T12:35:05.755Z,266.84
2023-03-06T12:36:03.223Z,262.78
2023-03-06T12:37:03.322Z,254.82
2023-03-06T12:38:03.446Z,246.40
2023-03-06T12:39:03.531Z,252.46
2023-03-06T12:40:03.640Z,258.02
2023-03-06T12:41:03.901Z,244.20
2023-03-06T12:42:06.753Z,248.83
2023-03-06T12:43:04.984Z,255.21
2023-03-06T12:44:04.135Z,259.25
2023-03-06T12:45:04.235Z,257.82
2023-03-06T12:46:04.395Z,246.03
2023-03-06T12:47:04.562Z,252.85
2023-03-06T12:48:04.653Z,240.26
2023-03-06T12:49:04.792Z,226.03
2023-03-06T12:50:04.940Z,231.12
2023-03-06T12:51:05.039Z,226.50
2023-03-06T12:52:05.207Z,216.49
2023-03-06T12:53:05.323Z,213.25
2023-03-06T12:54:05.461Z,220.71
2023-03-06T12:55:05.566Z,229.35
2023-03-06T12:56:05.656Z,237.82
2023-03-06T12:57:05.850Z,247.70
2023-03-06T12:58:05.957Z,261.31
2023-03-06T12:59:06.066Z,273.97
2023-03-06T13:00:06.153Z,275.81
2023-03-06T13:01:06.414Z,281.01
2023-03-06T13:02:06.477Z,287.91
2023-03-06T13:03:06.535Z,292.79
2023-03-06T13:04:06.679Z,292.01
2023-03-06T13:05:06.795Z,289.94
2023-03-06T13:06:06.887Z,296.76
2023-03-06T13:07:07.010Z,298.38
2023-03-06T13:08:07.108Z,292.01
2023-03-06T13:09:07.291Z,284.66
2023-03-06T13:10:07.380Z,280.29
2023-03-06T13:11:07.497Z,281.01
2023-03-06T13:12:07.625Z,273.28
2023-03-06T13:13:07.728Z,267.27
2023-03-06T13:14:07.828Z,276.97
2023-03-06T13:15:07.992Z,283.68
2023-03-06T13:16:08.094Z,278.62
2023-03-06T13:17:08.199Z,289.18
2023-03-06T13:18:08.296Z,297.03
2023-03-06T13:19:08.399Z,301.67
2023-03-06T13:20:08.548Z,305.61
2023-03-06T13:21:08.596Z,304.19
2023-03-06T13:22:08.695Z,305.04
2023-03-06T13:23:08.845Z,301.40
2023-03-06T13:24:08.966Z,304.47
2023-03-06T13:25:09.170Z,298.38
2023-03-06T13:26:09.213Z,295.96
2023-03-06T13:27:09.327Z,291.49
2023-03-06T13:28:09.405Z,290.97
2023-03-06T13:29:09.500Z,297.30
2023-03-06T13:30:09.638Z,298.65
2023-03-06T13:31:21.403Z,297.03
2023-03-06T13:32:10.940Z,292.01
2023-03-06T13:33:10.006Z,298.38
2023-03-06T13:34:10.158Z,308.77
2023-03-06T13:35:10.260Z,311.70
2023-03-06T13:36:10.378Z,303.91
2023-03-06T13:37:10.533Z,298.38
2023-03-06T13:38:10.626Z,304.19
2023-03-06T13:39:10.761Z,303.91
2023-03-06T13:40:10.849Z,298.65
2023-03-06T13:41:11.007Z,295.43
2023-03-06T13:42:11.240Z,280.05
2023-03-06T13:43:11.242Z,285.65
2023-03-06T13:44:11.394Z,292.27